Abbey Dell, Indiana
Current Conditions -  °F | °C
As of 5:15 PM on Sunday 25 Jan 2015 (Local Time) from KDCY Reporting Station
Drizzle Drizzle  
Wind Chill: 39°   Ceiling: 1100
Heat Index: 39°   Visibility: 5mi
Dew Point: 36°   Wind: 0mph
Humidity: 88%   Direction: NA
Pressure: 29.62"   Gusts: NA
Location:  38.6165°N, 86.6265°W
Report Text: KDCY 252215Z AUTO 00000KT 5SM DZ OVC011 04/02 A2962 RMK AO2 T00410022
Loading
Personal Weather Stations






























Interactive Weather Map New forecast layout! Learn more

10-Day Weather Forecast

Advertisements
Track Severe Weather on mobile